Grove, OK

6:22 AM CST on December 21, 2014 (GMT -0600)
Blue Heron Cove, Patricia Island, Grove,OK | Change Station
CLOSE
Current Station
Personal Weather Station
Location: Grove, OK
Elevation: 774 ft
Nearby Weather Stations

Elev 774 ft 36.59 °N, 94.84 °W | Updated 24 seconds ago

Overcast
Overcast
43.7 °F
Feels Like 42 °F
N
3.8
Wind Variable Wind from SW
Gusts 6.0 mph

Today
High -- | Low -- °F
--% Chance of Precip.
Yesterday
High -- | Low -- °F
Precip. -- in
7:27 AM 5:07 PM
Waning Crescent, 0% visible
Pressure 30.10 in
Visibility 7.0 miles
Clouds Overcast 3500 ft
Windchill 42 °F
Dew Point 40 °F
Humidity 87%
Rainfall 0.00 in
Snow Depth Not available.
UV 0 out of 12
Pollen 4.50 out of 12
Air Quality Not available.
Flu Activity Not available.
METAR KGMJ 211215Z AUTO 15006KT 7SM OVC035 07/07 A3010 RMK AO2

More Conditions Fewer Conditions

Pressure 30.10 in
Visibility 7.0 miles
Clouds Overcast 3500 ft
Windchill 42 °F
Dew Point 40 °F
Humidity 87%
Rainfall 0.00 in
Snow Depth Not available.
UV 0 out of 12
Pollen 4.50 out of 12
Air Quality Not available.
Flu Activity Not available.
METAR KGMJ 211215Z AUTO 15006KT 7SM OVC035 07/07 A3010 RMK AO2

More Conditions Fewer Conditions

Nowcast | as of 4:43 am CST on December 21, 2014

At 4:43 am...National Weather Service Doppler radar and area surface observations indicated areas of light drizzle across portions of eastern Oklahoma and western Arkansas. Drizzle is expected to continue through much of Sunday morning...and with temperatures above freezing...minor visibility reductions in the heaviest drizzle should be the only travel impacts.

×

10-Day Weather Forecast

Almanac

Astronomy

Dec. 21, 2014 Rise Set
Actual Time
Civil Twilight
Nautical Twilight
Astronomical Twilight
Moon
Length of Visible Light
Length of Day
Tomorrow will be .
, % of the Moon is Illuminated

Today's Extremes

State Highs State Lows

Community

WunderPhotos

Upload Photos

1,779,372 photos uploaded!

WunderBlogs® & News

Nearby

Air Quality

  Air Quality AQ Index Pollutant
Not available.

Snow Depth

Station Depth Elevation

Earthquake Activity

City Distance Mag. Time & Date
Minimum magnitude displayed is 2.5.

Coastal Water Temperatures

Place Temperature

Nearby Weather Stations